sensor_id;sensor_type;location;lat;lon;timestamp;pressure;altitude;pressure_sealevel;temperature;humidity
69223;BME280;56514;51.816;-0.026;2023-02-13T00:00:17;103054.94;;;9.18;64.26
69223;BME280;56514;51.816;-0.026;2023-02-13T00:03:22;103057.53;;;9.20;64.20
69223;BME280;56514;51.816;-0.026;2023-02-13T00:06:29;103054.00;;;9.19;64.18
69223;BME280;56514;51.816;-0.026;2023-02-13T00:09:34;103062.88;;;9.17;64.24
69223;BME280;56514;51.816;-0.026;2023-02-13T00:12:43;103048.03;;;9.14;64.29
69223;BME280;56514;51.816;-0.026;2023-02-13T00:15:57;103053.34;;;9.11;63.72
69223;BME280;56514;51.816;-0.026;2023-02-13T00:19:03;103049.00;;;9.09;64.38
69223;BME280;56514;51.816;-0.026;2023-02-13T00:22:12;103042.91;;;9.07;64.17
69223;BME280;56514;51.816;-0.026;2023-02-13T00:25:24;103041.16;;;9.07;63.86
69223;BME280;56514;51.816;-0.026;2023-02-13T00:28:34;103036.91;;;9.02;63.83
69223;BME280;56514;51.816;-0.026;2023-02-13T00:31:44;103043.03;;;9.02;63.95
69223;BME280;56514;51.816;-0.026;2023-02-13T00:34:53;103040.38;;;9.02;64.19
69223;BME280;56514;51.816;-0.026;2023-02-13T00:38:03;103050.94;;;9.02;64.29
69223;BME280;56514;51.816;-0.026;2023-02-13T00:41:13;103043.09;;;8.99;64.45
69223;BME280;56514;51.816;-0.026;2023-02-13T00:44:22;103041.34;;;9.00;64.07
69223;BME280;56514;51.816;-0.026;2023-02-13T00:47:08;103040.50;;;8.98;64.04
69223;BME280;56514;51.816;-0.026;2023-02-13T00:49:53;103037.91;;;8.96;64.00
69223;BME280;56514;51.816;-0.026;2023-02-13T00:52:38;103037.06;;;8.96;63.66
69223;BME280;56514;51.816;-0.026;2023-02-13T00:55:22;103033.59;;;8.93;64.15
69223;BME280;56514;51.816;-0.026;2023-02-13T00:58:08;103043.22;;;8.94;64.28
69223;BME280;56514;51.816;-0.026;2023-02-13T01:00:53;103040.59;;;8.94;63.67
69223;BME280;56514;51.816;-0.026;2023-02-13T01:03:39;103038.00;;;8.93;63.59
69223;BME280;56514;51.816;-0.026;2023-02-13T01:06:24;103037.16;;;8.93;64.11
69223;BME280;56514;51.816;-0.026;2023-02-13T01:09:09;103035.44;;;8.90;63.90
69223;BME280;56514;51.816;-0.026;2023-02-13T01:11:55;103037.28;;;8.86;63.86
69223;BME280;56514;51.816;-0.026;2023-02-13T01:14:39;103031.16;;;8.86;63.83
69223;BME280;56514;51.816;-0.026;2023-02-13T01:17:24;103034.63;;;8.88;64.12
69223;BME280;56514;51.816;-0.026;2023-02-13T01:20:11;103028.56;;;8.84;64.04
69223;BME280;56514;51.816;-0.026;2023-02-13T01:22:56;103030.28;;;8.85;64.33
69223;BME280;56514;51.816;-0.026;2023-02-13T01:25:41;103028.53;;;8.86;63.67
69223;BME280;56514;51.816;-0.026;2023-02-13T01:28:26;103022.47;;;8.82;63.89
69223;BME280;56514;51.816;-0.026;2023-02-13T01:31:11;103028.63;;;8.81;64.03
69223;BME280;56514;51.816;-0.026;2023-02-13T01:33:57;103030.34;;;8.82;64.41
69223;BME280;56514;51.816;-0.026;2023-02-13T01:36:42;103023.38;;;8.81;63.77
69223;BME280;56514;51.816;-0.026;2023-02-13T01:39:27;103030.50;;;8.76;63.67
69223;BME280;56514;51.816;-0.026;2023-02-13T01:42:20;103024.50;;;8.71;63.75
69223;BME280;56514;51.816;-0.026;2023-02-13T01:45:25;103038.53;;;8.70;63.82
69223;BME280;56514;51.816;-0.026;2023-02-13T01:48:24;103030.69;;;8.69;63.86
69223;BME280;56514;51.816;-0.026;2023-02-13T01:51:15;103029.84;;;8.67;63.93
69223;BME280;56514;51.816;-0.026;2023-02-13T01:54:07;103020.22;;;8.66;63.76
69223;BME280;56514;51.816;-0.026;2023-02-13T01:56:54;103015.81;;;8.68;63.61
69223;BME280;56514;51.816;-0.026;2023-02-13T01:59:52;103017.56;;;8.67;63.76
69223;BME280;56514;51.816;-0.026;2023-02-13T02:02:44;103016.69;;;8.67;63.88
69223;BME280;56514;51.816;-0.026;2023-02-13T02:05:32;103014.03;;;8.68;63.80
69223;BME280;56514;51.816;-0.026;2023-02-13T02:08:18;103015.09;;;8.61;63.73
69223;BME280;56514;51.816;-0.026;2023-02-13T02:11:35;103015.97;;;8.62;64.00
69223;BME280;56514;51.816;-0.026;2023-02-13T02:14:25;103008.13;;;8.59;64.28
69223;BME280;56514;51.816;-0.026;2023-02-13T02:17:10;103002.06;;;8.55;64.27
69223;BME280;56514;51.816;-0.026;2023-02-13T02:35:47;103003.06;;;8.51;63.89
69223;BME280;56514;51.816;-0.026;2023-02-13T02:39:00;103007.44;;;8.51;64.35
69223;BME280;56514;51.816;-0.026;2023-02-13T02:41:53;103003.94;;;8.50;64.19
69223;BME280;56514;51.816;-0.026;2023-02-13T02:47:41;103002.25;;;8.48;64.22
69223;BME280;56514;51.816;-0.026;2023-02-13T02:51:30;102997.78;;;8.51;63.91
69223;BME280;56514;51.816;-0.026;2023-02-13T02:57:29;102999.50;;;8.52;63.52
69223;BME280;56514;51.816;-0.026;2023-02-13T03:00:41;102994.25;;;8.52;64.10
69223;BME280;56514;51.816;-0.026;2023-02-13T03:03:46;102992.47;;;8.54;63.78
69223;BME280;56514;51.816;-0.026;2023-02-13T03:06:57;102993.25;;;8.56;63.90
69223;BME280;56514;51.816;-0.026;2023-02-13T03:09:56;102987.25;;;8.53;64.09
69223;BME280;56514;51.816;-0.026;2023-02-13T03:13:10;102990.75;;;8.52;64.02
69223;BME280;56514;51.816;-0.026;2023-02-13T03:16:11;102989.94;;;8.50;63.90
69223;BME280;56514;51.816;-0.026;2023-02-13T03:22:59;103004.91;;;8.46;63.84
69223;BME280;56514;51.816;-0.026;2023-02-13T03:25:59;102993.56;;;8.44;63.97
69223;BME280;56514;51.816;-0.026;2023-02-13T03:29:13;103001.53;;;8.41;64.28
69223;BME280;56514;51.816;-0.026;2023-02-13T03:32:28;102997.16;;;8.40;64.14
69223;BME280;56514;51.816;-0.026;2023-02-13T03:41:54;102981.44;;;8.39;63.89
69223;BME280;56514;51.816;-0.026;2023-02-13T03:47:54;102981.38;;;8.40;63.35
69223;BME280;56514;51.816;-0.026;2023-02-13T03:50:42;102982.22;;;8.42;63.25
69223;BME280;56514;51.816;-0.026;2023-02-13T03:53:28;102983.94;;;8.43;63.46
69223;BME280;56514;51.816;-0.026;2023-02-13T03:56:15;102989.16;;;8.45;62.98
69223;BME280;56514;51.816;-0.026;2023-02-13T03:59:25;102987.53;;;8.41;63.52
69223;BME280;56514;51.816;-0.026;2023-02-13T04:02:21;102989.28;;;8.40;63.53
69223;BME280;56514;51.816;-0.026;2023-02-13T04:05:15;102981.34;;;8.42;63.29
69223;BME280;56514;51.816;-0.026;2023-02-13T04:08:02;102976.97;;;8.42;63.12
69223;BME280;56514;51.816;-0.026;2023-02-13T04:10:55;102980.44;;;8.43;63.24
69223;BME280;56514;51.816;-0.026;2023-02-13T04:16:40;102979.63;;;8.41;63.13
69223;BME280;56514;51.816;-0.026;2023-02-13T04:19:26;102977.91;;;8.38;63.46
69223;BME280;56514;51.816;-0.026;2023-02-13T04:22:12;102989.31;;;8.39;63.50
69223;BME280;56514;51.816;-0.026;2023-02-13T04:24:56;102970.06;;;8.37;63.12
69223;BME280;56514;51.816;-0.026;2023-02-13T04:27:41;102968.34;;;8.36;63.45
69223;BME280;56514;51.816;-0.026;2023-02-13T04:30:26;102973.56;;;8.37;63.56
69223;BME280;56514;51.816;-0.026;2023-02-13T04:33:11;102973.53;;;8.39;63.55
69223;BME280;56514;51.816;-0.026;2023-02-13T04:35:57;102963.94;;;8.38;63.21
69223;BME280;56514;51.816;-0.026;2023-02-13T04:38:41;102972.66;;;8.38;63.13
69223;BME280;56514;51.816;-0.026;2023-02-13T04:41:26;102965.59;;;8.40;62.97
69223;BME280;56514;51.816;-0.026;2023-02-13T04:44:11;102965.59;;;8.40;63.37
69223;BME280;56514;51.816;-0.026;2023-02-13T04:46:56;102969.06;;;8.42;63.10
69223;BME280;56514;51.816;-0.026;2023-02-13T04:49:40;102970.78;;;8.43;63.17
69223;BME280;56514;51.816;-0.026;2023-02-13T04:52:25;102972.50;;;8.44;63.15
69223;BME280;56514;51.816;-0.026;2023-02-13T04:55:10;102962.88;;;8.45;63.33
69223;BME280;56514;51.816;-0.026;2023-02-13T04:57:55;102963.75;;;8.45;63.17
69223;BME280;56514;51.816;-0.026;2023-02-13T05:00:40;102974.25;;;8.45;63.57
69223;BME280;56514;51.816;-0.026;2023-02-13T05:03:25;102965.47;;;8.46;63.55
69223;BME280;56514;51.816;-0.026;2023-02-13T05:06:09;102961.03;;;8.48;63.19
69223;BME280;56514;51.816;-0.026;2023-02-13T05:08:54;102962.78;;;8.48;63.38
69223;BME280;56514;51.816;-0.026;2023-02-13T05:11:39;102968.09;;;8.46;63.50
69223;BME280;56514;51.816;-0.026;2023-02-13T05:14:24;102961.91;;;8.47;63.55
69223;BME280;56514;51.816;-0.026;2023-02-13T05:17:08;102956.66;;;8.47;63.61
69223;BME280;56514;51.816;-0.026;2023-02-13T05:19:53;102961.16;;;8.44;63.74
69223;BME280;56514;51.816;-0.026;2023-02-13T05:22:49;102954.09;;;8.44;63.41
69223;BME280;56514;51.816;-0.026;2023-02-13T05:25:53;102954.16;;;8.41;63.62
69223;BME280;56514;51.816;-0.026;2023-02-13T05:28:38;102956.81;;;8.41;63.83
69223;BME280;56514;51.816;-0.026;2023-02-13T05:31:42;102957.72;;;8.40;63.56
69223;BME280;56514;51.816;-0.026;2023-02-13T05:34:27;102962.97;;;8.40;63.15
69223;BME280;56514;51.816;-0.026;2023-02-13T05:37:13;102958.63;;;8.39;63.61
69223;BME280;56514;51.816;-0.026;2023-02-13T05:39:57;102952.41;;;8.42;63.42
69223;BME280;56514;51.816;-0.026;2023-02-13T05:42:42;102957.72;;;8.40;63.55
69223;BME280;56514;51.816;-0.026;2023-02-13T05:45:27;102953.41;;;8.38;63.71
69223;BME280;56514;51.816;-0.026;2023-02-13T05:48:12;102951.69;;;8.35;64.00
69223;BME280;56514;51.816;-0.026;2023-02-13T05:50:56;102951.69;;;8.35;63.62
69223;BME280;56514;51.816;-0.026;2023-02-13T05:53:41;102947.34;;;8.34;63.43
69223;BME280;56514;51.816;-0.026;2023-02-13T05:56:26;102947.38;;;8.33;63.47
69223;BME280;56514;51.816;-0.026;2023-02-13T05:59:11;102943.06;;;8.30;63.68
69223;BME280;56514;51.816;-0.026;2023-02-13T06:01:56;102952.75;;;8.28;63.65
69223;BME280;56514;51.816;-0.026;2023-02-13T06:04:41;102946.59;;;8.28;63.56
69223;BME280;56514;51.816;-0.026;2023-02-13T06:07:26;102950.97;;;8.30;63.90
69223;BME280;56514;51.816;-0.026;2023-02-13T06:10:11;102946.50;;;8.32;64.15
69223;BME280;56514;51.816;-0.026;2023-02-13T06:12:55;102947.41;;;8.31;63.65
69223;BME280;56514;51.816;-0.026;2023-02-13T06:15:40;102941.22;;;8.34;63.63
69223;BME280;56514;51.816;-0.026;2023-02-13T06:18:25;102940.28;;;8.36;64.22
69223;BME280;56514;51.816;-0.026;2023-02-13T06:21:10;102942.00;;;8.37;63.61
69223;BME280;56514;51.816;-0.026;2023-02-13T06:23:55;102943.75;;;8.37;64.20
69223;BME280;56514;51.816;-0.026;2023-02-13T06:26:40;102943.72;;;8.38;64.04
69223;BME280;56514;51.816;-0.026;2023-02-13T06:29:24;102949.88;;;8.39;63.65
69223;BME280;56514;51.816;-0.026;2023-02-13T06:32:09;102949.81;;;8.40;63.61
69223;BME280;56514;51.816;-0.026;2023-02-13T06:34:54;102950.69;;;8.41;63.91
69223;BME280;56514;51.816;-0.026;2023-02-13T06:37:39;102954.16;;;8.41;63.55
69223;BME280;56514;51.816;-0.026;2023-02-13T06:40:24;102951.53;;;8.41;63.63
69223;BME280;56514;51.816;-0.026;2023-02-13T06:43:08;102952.47;;;8.40;63.77
69223;BME280;56514;51.816;-0.026;2023-02-13T06:45:53;102946.34;;;8.38;63.89
69223;BME280;56514;51.816;-0.026;2023-02-13T06:48:38;102952.56;;;8.36;63.76
69223;BME280;56514;51.816;-0.026;2023-02-13T06:51:23;102954.28;;;8.37;63.90
69223;BME280;56514;51.816;-0.026;2023-02-13T06:54:08;102960.47;;;8.36;63.85
69223;BME280;56514;51.816;-0.026;2023-02-13T06:56:53;102949.06;;;8.35;63.74
69223;BME280;56514;51.816;-0.026;2023-02-13T06:59:38;102949.06;;;8.35;63.93
69223;BME280;56514;51.816;-0.026;2023-02-13T07:02:22;102965.66;;;8.39;63.87
69223;BME280;56514;51.816;-0.026;2023-02-13T07:05:09;102954.25;;;8.38;63.72
69223;BME280;56514;51.816;-0.026;2023-02-13T07:07:55;102951.53;;;8.41;63.58
69223;BME280;56514;51.816;-0.026;2023-02-13T07:10:40;102959.44;;;8.41;63.62
69223;BME280;56514;51.816;-0.026;2023-02-13T07:13:25;102953.34;;;8.41;63.58
69223;BME280;56514;51.816;-0.026;2023-02-13T07:16:10;102960.34;;;8.40;63.71
69223;BME280;56514;51.816;-0.026;2023-02-13T07:18:55;102959.44;;;8.41;63.94
69223;BME280;56514;51.816;-0.026;2023-02-13T07:21:40;102963.78;;;8.44;64.01
69223;BME280;56514;51.816;-0.026;2023-02-13T07:24:25;102955.88;;;8.44;63.78
69223;BME280;56514;51.816;-0.026;2023-02-13T07:27:09;102961.13;;;8.45;63.91
69223;BME280;56514;51.816;-0.026;2023-02-13T07:29:57;102953.16;;;8.48;63.79
69223;BME280;56514;51.816;-0.026;2023-02-13T07:32:42;102960.16;;;8.48;63.79
69223;BME280;56514;51.816;-0.026;2023-02-13T07:35:27;102961.88;;;8.49;63.76
69223;BME280;56514;51.816;-0.026;2023-02-13T07:38:12;102957.50;;;8.49;63.52
69223;BME280;56514;51.816;-0.026;2023-02-13T07:41:01;102955.72;;;8.51;63.61
69223;BME280;56514;51.816;-0.026;2023-02-13T07:43:46;102960.94;;;8.53;63.71
69223;BME280;56514;51.816;-0.026;2023-02-13T07:46:31;102953.00;;;8.54;63.49
69223;BME280;56514;51.816;-0.026;2023-02-13T07:49:16;102956.41;;;8.58;63.98
69223;BME280;56514;51.816;-0.026;2023-02-13T07:52:01;102964.19;;;8.62;63.94
69223;BME280;56514;51.816;-0.026;2023-02-13T07:54:46;102966.69;;;8.67;63.88
69223;BME280;56514;51.816;-0.026;2023-02-13T07:57:31;102962.19;;;8.72;63.53
69223;BME280;56514;51.816;-0.026;2023-02-13T08:00:16;102963.81;;;8.77;63.40
69223;BME280;56514;51.816;-0.026;2023-02-13T08:03:02;102956.66;;;8.82;63.32
69223;BME280;56514;51.816;-0.026;2023-02-13T08:05:47;102959.13;;;8.88;63.43
69223;BME280;56514;51.816;-0.026;2023-02-13T08:08:33;102954.72;;;8.90;63.27
69223;BME280;56514;51.816;-0.026;2023-02-13T08:11:27;102947.72;;;8.89;63.08
69223;BME280;56514;51.816;-0.026;2023-02-13T08:14:33;102945.13;;;8.88;62.92
69223;BME280;56514;51.816;-0.026;2023-02-13T08:17:18;102956.66;;;8.82;63.05
69223;BME280;56514;51.816;-0.026;2023-02-13T08:20:05;102950.81;;;8.71;63.04
69223;BME280;56514;51.816;-0.026;2023-02-13T08:22:53;102948.47;;;8.59;63.16
69223;BME280;56514;51.816;-0.026;2023-02-13T08:25:38;102949.56;;;8.51;63.28
69223;BME280;56514;51.816;-0.026;2023-02-13T08:28:23;102953.25;;;8.44;63.43
69223;BME280;56514;51.816;-0.026;2023-02-13T08:31:12;102949.94;;;8.36;63.45
69223;BME280;56514;51.816;-0.026;2023-02-13T08:33:57;102943.06;;;8.30;63.70
69223;BME280;56514;51.816;-0.026;2023-02-13T08:36:41;102940.47;;;8.27;63.48
69223;BME280;56514;51.816;-0.026;2023-02-13T08:39:26;102936.13;;;8.26;63.36
69223;BME280;56514;51.816;-0.026;2023-02-13T08:42:11;102939.66;;;8.25;63.88
69223;BME280;56514;51.816;-0.026;2023-02-13T08:44:56;102939.69;;;8.24;63.67
69223;BME280;56514;51.816;-0.026;2023-02-13T08:47:41;102937.91;;;8.24;63.52
69223;BME280;56514;51.816;-0.026;2023-02-13T08:50:26;102932.59;;;8.27;63.80
69223;BME280;56514;51.816;-0.026;2023-02-13T08:53:11;102939.53;;;8.31;63.82
69223;BME280;56514;51.816;-0.026;2023-02-13T08:55:56;102933.28;;;8.35;63.73
69223;BME280;56514;51.816;-0.026;2023-02-13T08:58:41;102942.00;;;8.37;63.81
69223;BME280;56514;51.816;-0.026;2023-02-13T09:01:26;102943.72;;;8.38;64.24
69223;BME280;56514;51.816;-0.026;2023-02-13T09:04:11;102936.69;;;8.40;63.71
69223;BME280;56514;51.816;-0.026;2023-02-13T09:06:59;102931.31;;;8.45;63.63
69223;BME280;56514;51.816;-0.026;2023-02-13T09:09:43;102932.97;;;8.47;63.25
69223;BME280;56514;51.816;-0.026;2023-02-13T09:12:29;102943.41;;;8.52;63.36
69223;BME280;56514;51.816;-0.026;2023-02-13T09:15:14;102938.09;;;8.53;63.50
69223;BME280;56514;51.816;-0.026;2023-02-13T09:17:59;102931.00;;;8.57;63.67
69223;BME280;56514;51.816;-0.026;2023-02-13T09:20:43;102924.78;;;8.59;63.68
69223;BME280;56514;51.816;-0.026;2023-02-13T09:23:37;102918.56;;;8.63;63.79
69223;BME280;56514;51.816;-0.026;2023-02-13T09:26:22;102917.47;;;8.72;63.29
69223;BME280;56514;51.816;-0.026;2023-02-13T09:29:07;102918.16;;;8.78;63.12
69223;BME280;56514;51.816;-0.026;2023-02-13T09:31:52;102913.63;;;8.85;63.22
69223;BME280;56514;51.816;-0.026;2023-02-13T09:34:36;102912.50;;;8.93;63.04
69223;BME280;56514;51.816;-0.026;2023-02-13T09:37:21;102916.72;;;8.99;63.38
69223;BME280;56514;51.816;-0.026;2023-02-13T09:40:34;102923.59;;;9.06;63.31
69223;BME280;56514;51.816;-0.026;2023-02-13T09:43:34;102915.50;;;9.12;62.70
69223;BME280;56514;51.816;-0.026;2023-02-13T09:46:32;102906.56;;;9.18;63.08
69223;BME280;56514;51.816;-0.026;2023-02-13T09:49:29;102924.00;;;9.23;62.86
69223;BME280;56514;51.816;-0.026;2023-02-13T09:52:16;102916.69;;;9.33;62.86
69223;BME280;56514;51.816;-0.026;2023-02-13T09:55:02;102912.94;;;9.41;62.49
69223;BME280;56514;51.816;-0.026;2023-02-13T09:57:57;102910.97;;;9.48;62.80
69223;BME280;56514;51.816;-0.026;2023-02-13T10:00:48;102921.28;;;9.57;62.59
69223;BME280;56514;51.816;-0.026;2023-02-13T10:03:44;102920.09;;;9.67;62.35
69223;BME280;56514;51.816;-0.026;2023-02-13T10:06:36;102927.78;;;9.74;62.04
69223;BME280;56514;51.816;-0.026;2023-02-13T10:13:03;102917.81;;;9.84;61.55
69223;BME280;56514;51.816;-0.026;2023-02-13T10:16:13;102920.28;;;9.90;61.01
69223;BME280;56514;51.816;-0.026;2023-02-13T10:21:58;102919.75;;;10.08;61.19
69223;BME280;56514;51.816;-0.026;2023-02-13T10:24:56;102913.31;;;10.16;60.87
69223;BME280;56514;51.816;-0.026;2023-02-13T10:27:46;102916.56;;;10.24;61.18
69223;BME280;56514;51.816;-0.026;2023-02-13T10:31:12;102913.69;;;10.32;60.86
69223;BME280;56514;51.816;-0.026;2023-02-13T10:33:52;102914.16;;;10.44;60.69
69223;BME280;56514;51.816;-0.026;2023-02-13T10:36:46;102907.81;;;10.50;60.13
69223;BME280;56514;51.816;-0.026;2023-02-13T10:39:31;102897.03;;;10.56;60.17
69223;BME280;56514;51.816;-0.026;2023-02-13T10:48:53;102900.31;;;10.89;60.07
69223;BME280;56514;51.816;-0.026;2023-02-13T10:52:23;102900.00;;;10.98;59.67
69223;BME280;56514;51.816;-0.026;2023-02-13T10:58:28;102904.28;;;11.25;59.62
69223;BME280;56514;51.816;-0.026;2023-02-13T11:01:32;102902.06;;;11.37;59.01
69223;BME280;56514;51.816;-0.026;2023-02-13T11:04:20;102900.84;;;11.47;58.79
69223;BME280;56514;51.816;-0.026;2023-02-13T11:07:13;102903.13;;;11.56;58.43
69223;BME280;56514;51.816;-0.026;2023-02-13T11:10:06;102900.16;;;11.65;58.41
69223;BME280;56514;51.816;-0.026;2023-02-13T11:13:14;102894.53;;;11.74;57.83
69223;BME280;56514;51.816;-0.026;2023-02-13T11:16:08;102901.28;;;11.81;57.69
69223;BME280;56514;51.816;-0.026;2023-02-13T11:18:57;102887.78;;;11.89;57.10
69223;BME280;56514;51.816;-0.026;2023-02-13T11:21:42;102887.47;;;11.96;57.44
69223;BME280;56514;51.816;-0.026;2023-02-13T11:24:28;102889.56;;;12.10;57.21
69223;BME280;56514;51.816;-0.026;2023-02-13T11:27:14;102884.84;;;12.18;56.58
69223;BME280;56514;51.816;-0.026;2023-02-13T11:30:24;102881.88;;;12.25;56.71
69223;BME280;56514;51.816;-0.026;2023-02-13T11:33:26;102889.44;;;12.34;55.92
69223;BME280;56514;51.816;-0.026;2023-02-13T11:36:25;102879.53;;;12.39;56.18
69223;BME280;56514;51.816;-0.026;2023-02-13T11:39:21;102872.06;;;12.49;55.67
69223;BME280;56514;51.816;-0.026;2023-02-13T11:42:13;102873.53;;;12.56;55.86
69223;BME280;56514;51.816;-0.026;2023-02-13T11:45:23;102866.94;;;12.66;55.83
69223;BME280;56514;51.816;-0.026;2023-02-13T11:48:20;102862.69;;;12.82;55.81
69223;BME280;56514;51.816;-0.026;2023-02-13T11:51:06;102853.25;;;12.95;55.43
69223;BME280;56514;51.816;-0.026;2023-02-13T11:53:51;102864.34;;;13.05;54.96
69223;BME280;56514;51.816;-0.026;2023-02-13T11:56:47;102858.56;;;13.15;54.25
69223;BME280;56514;51.816;-0.026;2023-02-13T11:59:39;102847.97;;;13.15;54.08
69223;BME280;56514;51.816;-0.026;2023-02-13T12:02:30;102844.06;;;13.24;54.34
69223;BME280;56514;51.816;-0.026;2023-02-13T12:05:18;102845.22;;;13.37;54.09
69223;BME280;56514;51.816;-0.026;2023-02-13T12:08:07;102845.22;;;13.55;53.89
69223;BME280;56514;51.816;-0.026;2023-02-13T12:10:53;102831.47;;;13.66;53.87
69223;BME280;56514;51.816;-0.026;2023-02-13T12:13:40;102829.16;;;13.77;53.57
69223;BME280;56514;51.816;-0.026;2023-02-13T12:16:39;102825.13;;;13.87;53.23
69223;BME280;56514;51.816;-0.026;2023-02-13T12:19:39;102820.97;;;14.00;53.05
69223;BME280;56514;51.816;-0.026;2023-02-13T12:25:20;102818.53;;;14.12;52.02
69223;BME280;56514;51.816;-0.026;2023-02-13T12:28:15;102817.16;;;14.23;52.00
69223;BME280;56514;51.816;-0.026;2023-02-13T12:40:27;102809.75;;;14.80;51.33
69223;BME280;56514;51.816;-0.026;2023-02-13T12:43:24;102811.22;;;14.86;50.23
69223;BME280;56514;51.816;-0.026;2023-02-13T12:49:43;102814.31;;;15.11;50.42
69223;BME280;56514;51.816;-0.026;2023-02-13T12:59:04;102808.31;;;15.55;48.50
69223;BME280;56514;51.816;-0.026;2023-02-13T13:02:24;102801.78;;;15.61;48.41
69223;BME280;56514;51.816;-0.026;2023-02-13T13:14:35;102777.38;;;16.00;47.87
69223;BME280;56514;51.816;-0.026;2023-02-13T13:20:50;102758.97;;;17.52;44.45
69223;BME280;56514;51.816;-0.026;2023-02-13T13:23:44;102748.97;;;18.22;43.60
69223;BME280;56514;51.816;-0.026;2023-02-13T13:26:40;102741.28;;;20.24;41.10
69223;BME280;56514;51.816;-0.026;2023-02-13T13:29:33;102738.81;;;21.87;37.58
69223;BME280;56514;51.816;-0.026;2023-02-13T13:32:20;102738.75;;;23.01;35.48
69223;BME280;56514;51.816;-0.026;2023-02-13T13:35:15;102729.00;;;23.87;33.75
69223;BME280;56514;51.816;-0.026;2023-02-13T13:38:05;102723.28;;;24.66;31.94
69223;BME280;56514;51.816;-0.026;2023-02-13T13:41:04;102720.06;;;25.17;30.49
69223;BME280;56514;51.816;-0.026;2023-02-13T13:44:13;102728.09;;;25.36;30.82
69223;BME280;56514;51.816;-0.026;2023-02-13T13:47:18;102733.63;;;25.79;30.14
69223;BME280;56514;51.816;-0.026;2023-02-13T13:50:04;102726.22;;;26.16;28.72
69223;BME280;56514;51.816;-0.026;2023-02-13T13:53:10;102729.78;;;26.42;29.52
69223;BME280;56514;51.816;-0.026;2023-02-13T13:58:45;102723.72;;;26.99;29.05
69223;BME280;56514;51.816;-0.026;2023-02-13T14:01:30;102721.19;;;27.48;27.75
69223;BME280;56514;51.816;-0.026;2023-02-13T14:07:22;102704.75;;;27.49;26.84
69223;BME280;56514;51.816;-0.026;2023-02-13T14:13:28;102707.03;;;28.26;26.91
69223;BME280;56514;51.816;-0.026;2023-02-13T14:16:38;102706.50;;;28.62;25.57
69223;BME280;56514;51.816;-0.026;2023-02-13T14:19:37;102714.34;;;28.49;24.84
69223;BME280;56514;51.816;-0.026;2023-02-13T14:25:24;102697.63;;;29.15;24.33
69223;BME280;56514;51.816;-0.026;2023-02-13T14:28:21;102691.94;;;29.33;24.35
69223;BME280;56514;51.816;-0.026;2023-02-13T14:31:33;102684.28;;;29.36;24.08
69223;BME280;56514;51.816;-0.026;2023-02-13T14:34:23;102685.53;;;29.26;24.30
69223;BME280;56514;51.816;-0.026;2023-02-13T14:37:16;102687.00;;;29.59;23.57
69223;BME280;56514;51.816;-0.026;2023-02-13T14:46:32;102682.16;;;29.77;23.49
69223;BME280;56514;51.816;-0.026;2023-02-13T14:49:23;102690.16;;;30.15;23.32
69223;BME280;56514;51.816;-0.026;2023-02-13T14:52:21;102684.66;;;30.52;23.21
69223;BME280;56514;51.816;-0.026;2023-02-13T14:55:34;102681.41;;;30.86;23.04
69223;BME280;56514;51.816;-0.026;2023-02-13T14:58:31;102686.28;;;31.05;22.20
69223;BME280;56514;51.816;-0.026;2023-02-13T15:07:06;102673.84;;;31.17;20.92
69223;BME280;56514;51.816;-0.026;2023-02-13T15:13:23;102677.66;;;30.87;21.19
69223;BME280;56514;51.816;-0.026;2023-02-13T15:16:12;102672.75;;;30.97;21.84
69223;BME280;56514;51.816;-0.026;2023-02-13T15:18:58;102678.81;;;31.14;21.60
69223;BME280;56514;51.816;-0.026;2023-02-13T15:21:52;102676.53;;;31.32;21.16
69223;BME280;56514;51.816;-0.026;2023-02-13T15:24:46;102670.38;;;31.44;20.84
69223;BME280;56514;51.816;-0.026;2023-02-13T15:27:35;102662.28;;;31.51;21.07
69223;BME280;56514;51.816;-0.026;2023-02-13T15:30:26;102670.06;;;31.33;21.24
69223;BME280;56514;51.816;-0.026;2023-02-13T15:33:16;102666.47;;;31.32;21.03
69223;BME280;56514;51.816;-0.026;2023-02-13T15:36:04;102664.88;;;31.23;21.51
69223;BME280;56514;51.816;-0.026;2023-02-13T15:39:04;102669.41;;;31.31;21.55
69223;BME280;56514;51.816;-0.026;2023-02-13T15:41:55;102658.06;;;30.98;21.31
69223;BME280;56514;51.816;-0.026;2023-02-13T15:44:44;102661.59;;;30.78;21.63
69223;BME280;56514;51.816;-0.026;2023-02-13T15:47:31;102652.25;;;30.72;21.48
69223;BME280;56514;51.816;-0.026;2023-02-13T15:53:16;102664.34;;;29.89;22.08
69223;BME280;56514;51.816;-0.026;2023-02-13T15:56:04;102657.88;;;29.45;22.30
69223;BME280;56514;51.816;-0.026;2023-02-13T15:58:50;102660.59;;;29.14;23.34
69223;BME280;56514;51.816;-0.026;2023-02-13T16:01:36;102654.81;;;29.17;23.00
69223;BME280;56514;51.816;-0.026;2023-02-13T16:04:23;102660.53;;;28.91;23.10
69223;BME280;56514;51.816;-0.026;2023-02-13T16:07:11;102669.50;;;28.53;23.91
69223;BME280;56514;51.816;-0.026;2023-02-13T16:10:15;102662.25;;;28.14;24.40
69223;BME280;56514;51.816;-0.026;2023-02-13T16:13:03;102661.59;;;27.72;24.83
69223;BME280;56514;51.816;-0.026;2023-02-13T16:15:49;102666.44;;;27.36;25.11
69223;BME280;56514;51.816;-0.026;2023-02-13T16:18:34;102671.00;;;26.86;25.80
69223;BME280;56514;51.816;-0.026;2023-02-13T16:21:24;102672.97;;;26.50;26.19
69223;BME280;56514;51.816;-0.026;2023-02-13T16:24:14;102670.38;;;26.15;26.56
69223;BME280;56514;51.816;-0.026;2023-02-13T16:26:59;102674.13;;;25.61;27.58
69223;BME280;56514;51.816;-0.026;2023-02-13T16:30:15;102673.16;;;24.91;27.88
69223;BME280;56514;51.816;-0.026;2023-02-13T16:36:16;102673.38;;;23.38;29.90
69223;BME280;56514;51.816;-0.026;2023-02-13T16:39:10;102677.97;;;22.68;31.18
69223;BME280;56514;51.816;-0.026;2023-02-13T16:41:58;102677.97;;;22.06;32.01
69223;BME280;56514;51.816;-0.026;2023-02-13T16:44:43;102672.91;;;21.29;33.00
69223;BME280;56514;51.816;-0.026;2023-02-13T16:47:27;102678.06;;;20.22;33.76
69223;BME280;56514;51.816;-0.026;2023-02-13T16:50:13;102678.19;;;18.90;35.75
69223;BME280;56514;51.816;-0.026;2023-02-13T16:53:03;102676.38;;;17.64;37.50